createdAt,value
2022-08-11T00:20:58.786Z,37.20
2022-08-11T00:22:04.038Z,41.40
2022-08-11T00:22:59.789Z,40.20
2022-08-11T00:23:58.759Z,47.90
2022-08-11T00:25:02.339Z,38.70
2022-08-11T00:25:58.734Z,47.20
2022-08-11T00:26:58.726Z,48.20
2022-08-11T00:27:58.718Z,62.79
2022-08-11T00:28:58.705Z,54.59
2022-08-11T00:29:58.698Z,45.29
2022-08-11T00:30:58.690Z,43.29
2022-08-11T00:31:58.679Z,35.59
2022-08-11T00:32:58.668Z,39.59
2022-08-11T00:33:58.658Z,36.40
2022-08-11T00:35:52.087Z,49.50
2022-08-11T00:35:59.654Z,43.20
2022-08-11T00:36:58.625Z,43.20
2022-08-11T00:37:58.613Z,35.29
2022-08-11T00:38:58.603Z,38.50
2022-08-11T00:39:58.661Z,37.90
2022-08-11T00:40:58.585Z,37.79
2022-08-11T00:41:58.576Z,36.79
2022-08-11T00:42:58.563Z,42.00
2022-08-11T00:43:58.555Z,42.00
2022-08-11T00:44:58.543Z,41.09
2022-08-11T00:45:58.532Z,41.70
2022-08-11T00:46:58.525Z,38.59
2022-08-11T00:48:00.288Z,39.09
2022-08-11T00:48:58.500Z,42.70
2022-08-11T00:49:58.489Z,36.29
2022-08-11T00:50:58.479Z,35.79
2022-08-11T00:52:05.825Z,36.70
2022-08-11T00:52:59.480Z,36.59
2022-08-11T00:53:58.448Z,33.70
2022-08-11T00:54:58.441Z,30.50
2022-08-11T00:55:58.426Z,32.50
2022-08-11T00:56:58.418Z,31.39
2022-08-11T00:57:58.406Z,31.50
2022-08-11T00:58:58.395Z,28.10
2022-08-11T00:59:58.384Z,26.10
2022-08-11T01:00:58.444Z,29.79
2022-08-11T01:01:58.366Z,27.39
2022-08-11T01:02:58.351Z,31.00
2022-08-11T01:03:58.343Z,36.90
2022-08-11T01:04:58.333Z,30.60
2022-08-11T01:05:58.323Z,31.50
2022-08-11T01:06:58.309Z,29.50
2022-08-11T01:08:01.868Z,32.59
2022-08-11T01:08:58.289Z,35.20
2022-08-11T01:09:58.329Z,32.59
2022-08-11T01:10:58.273Z,37.40
2022-08-11T01:11:58.258Z,39.90
2022-08-11T01:12:58.249Z,40.00
2022-08-11T01:13:58.238Z,38.79
2022-08-11T01:14:58.230Z,37.59
2022-08-11T01:15:58.227Z,40.59
2022-08-11T01:16:58.210Z,36.20
2022-08-11T01:17:58.204Z,34.70
2022-08-11T01:18:58.193Z,33.20
2022-08-11T01:20:38.592Z,33.50
2022-08-11T01:20:59.191Z,31.39
2022-08-11T01:21:58.161Z,25.39
2022-08-11T01:22:58.152Z,31.60
2022-08-11T01:23:58.160Z,27.39
2022-08-11T01:24:58.132Z,28.60
2022-08-11T01:25:58.122Z,29.00
2022-08-11T01:26:58.118Z,28.89
2022-08-11T01:27:58.103Z,29.70
2022-08-11T01:28:58.094Z,23.00
2022-08-11T01:29:58.080Z,25.70
2022-08-11T01:30:58.069Z,24.20
2022-08-11T01:31:58.061Z,27.20
2022-08-11T01:32:58.049Z,22.50
2022-08-11T01:33:58.042Z,27.10
2022-08-11T01:34:58.029Z,27.70
2022-08-11T01:35:58.019Z,26.70
2022-08-11T01:36:58.012Z,26.70
2022-08-11T01:37:58.002Z,24.60
2022-08-11T01:38:57.989Z,29.10
2022-08-11T01:39:58.032Z,29.60
2022-08-11T01:40:57.968Z,27.70
2022-08-11T01:41:57.959Z,24.20
2022-08-11T01:42:57.946Z,24.50
2022-08-11T01:43:57.936Z,24.50
2022-08-11T01:44:57.929Z,26.00
2022-08-11T01:45:57.921Z,23.39
2022-08-11T01:46:57.909Z,26.70
2022-08-11T01:47:57.898Z,23.00
2022-08-11T01:48:57.885Z,22.89
2022-08-11T01:50:09.831Z,22.29
2022-08-11T01:50:58.891Z,21.89
2022-08-11T01:51:57.861Z,22.89
2022-08-11T01:52:57.848Z,21.60
2022-08-11T01:53:57.835Z,19.39
2022-08-11T01:54:57.825Z,21.10
2022-08-11T01:55:57.818Z,19.89
2022-08-11T01:56:57.808Z,18.50
2022-08-11T01:57:57.794Z,18.29
2022-08-11T01:58:57.787Z,20.00
2022-08-11T01:59:57.775Z,15.80
2022-08-11T02:00:57.850Z,18.10
2022-08-11T02:01:57.758Z,19.29
2022-08-11T02:02:57.746Z,20.29
2022-08-11T02:03:57.737Z,22.70
2022-08-11T02:04:57.724Z,24.39
2022-08-11T02:05:57.719Z,22.79
2022-08-11T02:06:57.708Z,24.10
2022-08-11T02:07:57.694Z,23.29
2022-08-11T02:08:57.693Z,21.79
2022-08-11T02:09:57.674Z,21.50
2022-08-11T02:10:57.673Z,22.00
2022-08-11T02:11:57.655Z,20.60
2022-08-11T02:12:57.644Z,21.39
2022-08-11T02:13:57.636Z,26.00
2022-08-11T02:15:04.799Z,20.60
2022-08-11T02:15:58.636Z,22.39
2022-08-11T02:16:57.605Z,24.79
2022-08-11T02:17:57.597Z,18.70
2022-08-11T02:18:57.587Z,18.89
2022-08-11T02:19:57.577Z,18.00
2022-08-11T02:21:57.559Z,21.79
2022-08-11T02:22:57.545Z,20.00
2022-08-11T02:23:59.507Z,19.39
2022-08-11T02:24:58.548Z,22.70
2022-08-11T02:25:57.512Z,22.79
2022-08-11T02:26:57.505Z,21.79
2022-08-11T02:27:57.492Z,21.60
2022-08-11T02:28:57.484Z,21.39
2022-08-11T02:29:57.470Z,21.50
2022-08-11T02:30:57.464Z,25.00
2022-08-11T02:32:15.512Z,24.29
2022-08-11T02:32:58.464Z,24.50
2022-08-11T02:33:57.431Z,24.89
2022-08-11T02:34:59.768Z,25.39
2022-08-11T02:35:57.413Z,22.79
2022-08-11T02:36:57.409Z,25.10
2022-08-11T02:37:57.393Z,27.20
2022-08-11T02:38:57.382Z,23.89
2022-08-11T02:39:57.372Z,25.00
2022-08-11T02:40:57.363Z,21.20
2022-08-11T02:41:57.352Z,19.60
2022-08-11T02:42:57.343Z,18.29
2022-08-11T02:43:57.330Z,18.29
2022-08-11T02:44:57.323Z,17.79
2022-08-11T02:45:57.312Z,17.29
2022-08-11T02:46:57.299Z,20.20
2022-08-11T02:47:57.294Z,20.79
2022-08-11T02:48:57.280Z,22.70
2022-08-11T02:50:06.348Z,19.39
2022-08-11T02:50:58.280Z,19.20
2022-08-11T02:51:57.249Z,18.89
2022-08-11T02:52:57.240Z,20.10
2022-08-11T02:53:58.282Z,19.60
2022-08-11T02:56:57.197Z,16.70
2022-08-11T03:40:56.756Z,12.60
2022-08-11T03:42:03.673Z,13.60
2022-08-11T03:42:57.760Z,12.30
2022-08-11T03:43:58.246Z,12.39
2022-08-11T03:49:56.667Z,12.60
2022-08-11T03:50:56.662Z,12.69
2022-08-11T03:53:56.629Z,14.80
2022-08-11T03:55:56.606Z,15.39
2022-08-11T03:56:56.599Z,12.30
2022-08-11T03:57:56.588Z,11.50
2022-08-11T03:58:56.576Z,11.10
2022-08-11T03:59:56.568Z,11.39
2022-08-11T04:00:56.559Z,10.19
2022-08-11T04:01:56.606Z,11.39
2022-08-11T04:02:56.537Z,12.50
2022-08-11T04:03:56.532Z,11.00
2022-08-11T04:04:56.522Z,11.10
2022-08-11T04:05:56.511Z,10.69
2022-08-11T04:06:56.500Z,12.50
2022-08-11T04:07:56.489Z,11.39
2022-08-11T04:08:56.481Z,11.39
2022-08-11T04:09:56.472Z,12.30
2022-08-11T04:10:57.469Z,14.39
2022-08-11T04:11:56.449Z,11.60
2022-08-11T04:12:56.439Z,12.69
2022-08-11T04:13:56.434Z,11.10
2022-08-11T04:14:56.421Z,10.89
2022-08-11T04:15:56.413Z,11.80
2022-08-11T04:16:56.405Z,9.60
2022-08-11T04:17:56.389Z,11.80
2022-08-11T04:18:56.381Z,12.50
2022-08-11T04:19:56.370Z,10.30
2022-08-11T04:20:56.362Z,12.39
2022-08-11T04:21:56.353Z,11.89
2022-08-11T04:22:56.344Z,12.30
2022-08-11T04:24:33.097Z,11.80
2022-08-11T04:24:57.348Z,12.19
2022-08-11T04:25:58.522Z,11.00
2022-08-11T04:26:56.316Z,12.10
2022-08-11T04:27:56.295Z,12.60
2022-08-11T04:28:56.285Z,12.60
2022-08-11T04:30:03.879Z,12.89
2022-08-11T04:30:57.286Z,13.39
2022-08-11T04:31:56.260Z,9.80
2022-08-11T04:32:56.242Z,10.19
2022-08-11T04:33:56.608Z,11.00
2022-08-11T04:34:56.224Z,11.10
2022-08-11T04:35:56.212Z,9.89
2022-08-11T04:36:56.204Z,10.30
2022-08-11T04:37:56.194Z,11.39
2022-08-11T04:38:56.183Z,9.19
2022-08-11T04:39:56.176Z,9.89
2022-08-11T04:40:56.164Z,10.69
2022-08-11T04:41:56.153Z,10.00
2022-08-11T04:42:56.143Z,12.39
2022-08-11T04:44:02.129Z,11.00
2022-08-11T04:44:57.148Z,11.00
2022-08-11T04:45:56.115Z,10.80
2022-08-11T04:46:56.102Z,9.39
2022-08-11T04:48:03.665Z,9.69
2022-08-11T04:48:57.112Z,10.39
2022-08-11T04:49:56.076Z,9.39
2022-08-11T04:51:00.698Z,12.50
2022-08-11T04:51:57.074Z,11.19
2022-08-11T04:52:56.040Z,10.89
2022-08-11T04:53:56.030Z,8.89
2022-08-11T04:54:56.021Z,9.60
2022-08-11T04:55:56.008Z,10.60
2022-08-11T04:56:56.001Z,10.10
2022-08-11T04:57:55.990Z,9.60
2022-08-11T04:58:55.980Z,8.69
2022-08-11T04:59:55.969Z,10.00
2022-08-11T05:00:56.658Z,8.30
2022-08-11T05:01:56.012Z,9.10
2022-08-11T05:02:55.938Z,11.39
2022-08-11T05:03:55.928Z,11.60
2022-08-11T05:04:55.917Z,8.89
2022-08-11T05:05:56.961Z,11.60
2022-08-11T05:06:55.895Z,12.39
2022-08-11T05:07:55.886Z,11.19
2022-08-11T05:08:55.869Z,11.69
2022-08-11T05:09:55.866Z,12.69
2022-08-11T05:10:55.849Z,10.50
2022-08-11T05:11:57.885Z,12.60
2022-08-11T05:12:55.832Z,12.30
2022-08-11T05:13:55.828Z,11.39
2022-08-11T05:14:55.809Z,14.00
2022-08-11T05:15:55.798Z,11.69
2022-08-11T05:16:55.788Z,11.50
2022-08-11T05:17:55.781Z,11.50
2022-08-11T05:18:55.769Z,9.00
2022-08-11T05:19:55.756Z,10.19
2022-08-11T05:20:55.746Z,9.00
2022-08-11T05:21:57.259Z,9.19
2022-08-11T05:22:55.726Z,10.00
2022-08-11T05:23:55.715Z,11.10
2022-08-11T05:24:55.705Z,9.80
2022-08-11T05:26:47.372Z,9.00
2022-08-11T05:26:55.687Z,11.69
2022-08-11T05:27:55.671Z,11.00
2022-08-11T05:28:55.667Z,12.89
2022-08-11T05:29:55.653Z,12.60
2022-08-11T05:30:55.700Z,9.30
2022-08-11T05:31:55.635Z,10.30
2022-08-11T05:33:00.934Z,12.60
2022-08-11T05:33:55.615Z,12.00
2022-08-11T05:34:55.605Z,9.39
2022-08-11T05:36:00.965Z,12.30
2022-08-11T05:37:17.186Z,10.10
2022-08-11T05:37:56.589Z,9.69
2022-08-11T05:38:55.563Z,9.10
2022-08-11T05:39:55.666Z,9.89
2022-08-11T05:41:00.037Z,11.00
2022-08-11T05:41:55.535Z,11.30
2022-08-11T05:42:55.522Z,11.10
2022-08-11T05:44:19.869Z,13.30
2022-08-11T05:44:56.526Z,12.00
2022-08-11T05:46:02.985Z,9.69
2022-08-11T05:46:56.500Z,12.19
2022-08-11T05:47:55.470Z,11.89
2022-08-11T05:48:55.476Z,11.00
2022-08-11T05:49:55.455Z,9.39
2022-08-11T05:50:55.441Z,10.30
2022-08-11T05:51:57.295Z,11.39
2022-08-11T05:52:56.674Z,10.19
2022-08-11T05:53:55.411Z,11.19
2022-08-11T05:54:55.404Z,13.39
2022-08-11T05:56:02.822Z,14.50
2022-08-11T05:56:56.402Z,9.30
2022-08-11T05:57:55.370Z,13.39
2022-08-11T05:58:55.360Z,12.80
2022-08-11T05:59:55.350Z,11.89
2022-08-11T06:00:55.338Z,12.60
2022-08-11T06:01:55.362Z,12.60
2022-08-11T06:02:55.558Z,13.10
2022-08-11T06:03:58.124Z,13.89
2022-08-11T06:04:55.300Z,10.30
2022-08-11T06:05:55.293Z,12.00
2022-08-11T06:06:55.282Z,12.30
2022-08-11T06:07:55.275Z,11.30
2022-08-11T06:08:55.259Z,14.39
2022-08-11T06:09:55.253Z,13.89
2022-08-11T06:10:55.242Z,11.69
2022-08-11T06:11:55.233Z,15.39
2022-08-11T06:12:55.221Z,15.19
2022-08-11T06:13:55.213Z,15.19
2022-08-11T06:14:55.211Z,13.10
2022-08-11T06:15:55.194Z,13.80
2022-08-11T06:16:55.180Z,12.10
2022-08-11T06:17:55.172Z,12.10
2022-08-11T06:18:55.161Z,12.80
2022-08-11T06:19:55.149Z,12.50
2022-08-11T06:20:56.163Z,10.89
2022-08-11T06:21:55.136Z,12.30
2022-08-11T06:22:55.137Z,10.60
2022-08-11T06:23:55.109Z,12.10
2022-08-11T06:24:55.098Z,15.50
2022-08-11T06:25:56.394Z,9.89
2022-08-11T06:27:11.952Z,9.80
2022-08-11T06:27:55.069Z,12.30
2022-08-11T06:28:55.055Z,10.80
2022-08-11T06:29:55.804Z,14.69
2022-08-11T06:30:55.040Z,14.60
2022-08-11T06:31:55.028Z,10.00
2022-08-11T06:32:55.015Z,11.60
2022-08-11T06:33:55.010Z,10.39
2022-08-11T06:34:54.993Z,12.60
2022-08-11T06:35:54.988Z,13.39
2022-08-11T06:36:54.977Z,13.50
2022-08-11T06:37:59.118Z,15.00
2022-08-11T06:38:54.953Z,14.50
2022-08-11T06:39:55.027Z,13.80
2022-08-11T06:40:54.935Z,16.00
2022-08-11T06:41:54.927Z,13.00
2022-08-11T06:42:54.911Z,13.89
2022-08-11T06:43:56.151Z,13.30
2022-08-11T06:44:54.893Z,12.60
2022-08-11T06:45:54.884Z,12.30
2022-08-11T06:46:54.875Z,11.60
2022-08-11T06:47:54.861Z,10.80
2022-08-11T06:48:54.853Z,10.60
2022-08-11T06:49:54.845Z,12.30
2022-08-11T06:50:54.831Z,14.10
2022-08-11T06:51:54.824Z,11.19
2022-08-11T06:52:54.814Z,10.19
2022-08-11T06:54:04.066Z,16.20
2022-08-11T06:54:55.813Z,12.00
2022-08-11T06:55:58.251Z,14.30
2022-08-11T06:57:12.453Z,17.10
2022-08-11T06:57:54.765Z,11.39
2022-08-11T06:58:54.754Z,9.89
2022-08-11T06:59:54.742Z,10.89
2022-08-11T07:00:54.735Z,12.19
2022-08-11T07:01:54.835Z,12.10
2022-08-11T07:02:54.714Z,12.50
2022-08-11T07:03:54.710Z,11.50
2022-08-11T07:04:54.694Z,9.60
2022-08-11T07:05:54.684Z,11.39
2022-08-11T07:06:54.672Z,14.19
2022-08-11T07:07:54.664Z,11.19
2022-08-11T07:08:54.653Z,12.80
2022-08-11T07:09:54.643Z,10.69
2022-08-11T07:10:54.636Z,16.00
2022-08-11T07:11:54.632Z,11.80
2022-08-11T07:12:54.613Z,10.39
2022-08-11T07:13:54.607Z,10.69
2022-08-11T07:15:00.261Z,10.69
2022-08-11T07:16:11.301Z,9.89
2022-08-11T07:16:55.596Z,12.69
2022-08-11T07:17:54.564Z,11.80
2022-08-11T07:18:54.556Z,10.10
2022-08-11T07:19:56.784Z,10.89
2022-08-11T07:20:58.602Z,11.10
2022-08-11T07:22:03.012Z,9.60
2022-08-11T07:22:55.533Z,9.00
2022-08-11T07:23:54.504Z,9.30
2022-08-11T07:24:59.854Z,10.10
2022-08-11T07:25:55.505Z,11.50
2022-08-11T07:26:54.473Z,12.80
2022-08-11T07:27:54.465Z,11.00
2022-08-11T07:28:54.456Z,8.80
2022-08-11T07:29:54.444Z,11.80
2022-08-11T07:30:54.440Z,12.10
2022-08-11T07:31:54.427Z,9.00
2022-08-11T07:32:54.415Z,13.00
2022-08-11T07:34:05.869Z,13.10
2022-08-11T07:34:54.399Z,10.39
2022-08-11T07:35:54.384Z,13.60
2022-08-11T07:36:54.380Z,9.39
2022-08-11T07:38:01.647Z,11.50
2022-08-11T07:38:55.378Z,10.80
2022-08-11T07:39:54.447Z,9.69
2022-08-11T07:40:54.337Z,12.80
2022-08-11T07:41:54.328Z,11.39
2022-08-11T07:42:54.320Z,10.80
2022-08-11T07:43:54.310Z,10.69
2022-08-11T07:44:54.301Z,13.69
2022-08-11T07:45:54.293Z,13.10
2022-08-11T07:46:54.280Z,9.80
2022-08-11T07:47:54.266Z,11.50
2022-08-11T07:48:54.256Z,11.89
2022-08-11T07:49:54.252Z,12.00
2022-08-11T07:50:56.201Z,11.19
2022-08-11T07:51:54.229Z,11.00
2022-08-11T07:52:54.219Z,9.80
2022-08-11T07:53:58.362Z,13.60
2022-08-11T07:54:55.223Z,12.39
2022-08-11T07:55:54.290Z,12.39
2022-08-11T07:57:09.036Z,11.00
2022-08-11T07:58:16.455Z,8.89
2022-08-11T07:58:57.621Z,11.69
2022-08-11T08:00:03.958Z,10.00
2022-08-11T08:00:55.156Z,11.50
2022-08-11T08:01:54.183Z,10.89
2022-08-11T08:02:54.120Z,11.00
2022-08-11T08:03:54.939Z,11.69
2022-08-11T08:04:54.099Z,9.80
2022-08-11T08:05:54.088Z,10.69
2022-08-11T08:06:54.083Z,10.60
2022-08-11T08:07:54.072Z,10.80
2022-08-11T08:08:54.061Z,10.89
2022-08-11T08:09:54.048Z,9.69
2022-08-11T08:10:54.041Z,10.60
2022-08-11T08:11:54.033Z,10.39
2022-08-11T08:12:54.025Z,8.89
2022-08-11T08:13:54.014Z,13.80
2022-08-11T08:14:54.004Z,10.50
2022-08-11T08:15:53.991Z,10.30
2022-08-11T08:16:53.981Z,10.39
2022-08-11T08:18:20.449Z,9.89
2022-08-11T08:18:54.986Z,10.80
2022-08-11T08:19:53.952Z,12.60
2022-08-11T08:20:53.943Z,10.10
2022-08-11T08:21:53.939Z,11.50
2022-08-11T08:22:55.353Z,14.80
2022-08-11T08:23:56.199Z,10.10
2022-08-11T08:24:53.902Z,8.69
2022-08-11T08:25:53.898Z,10.39
2022-08-11T08:26:53.886Z,10.10
2022-08-11T08:27:53.875Z,10.89
2022-08-11T08:28:53.875Z,10.80
2022-08-11T08:29:53.856Z,11.19
2022-08-11T08:30:53.843Z,11.60
2022-08-11T08:31:53.837Z,12.30
2022-08-11T08:32:53.824Z,10.69
2022-08-11T08:33:53.815Z,9.89
2022-08-11T08:34:53.810Z,8.89
2022-08-11T08:35:54.397Z,11.69
2022-08-11T08:36:53.784Z,9.50
2022-08-11T08:37:53.777Z,9.69
2022-08-11T08:38:53.765Z,12.89
2022-08-11T08:39:53.860Z,13.60
2022-08-11T08:40:55.906Z,12.60
2022-08-11T08:41:53.739Z,12.10
2022-08-11T08:42:53.732Z,15.69
2022-08-11T08:43:53.732Z,10.39
2022-08-11T08:44:53.710Z,11.00
2022-08-11T08:45:53.706Z,9.10
2022-08-11T08:46:53.692Z,10.89
2022-08-11T08:47:53.730Z,8.30
2022-08-11T08:48:53.847Z,11.30
2022-08-11T08:49:53.665Z,11.10
2022-08-11T08:50:53.657Z,9.69
2022-08-11T08:52:00.875Z,8.00
2022-08-11T08:52:54.662Z,10.00
2022-08-11T08:53:56.356Z,8.60
2022-08-11T08:54:53.620Z,10.50
2022-08-11T08:55:53.611Z,11.39
2022-08-11T08:56:53.603Z,11.19
2022-08-11T08:57:53.592Z,9.80
2022-08-11T08:58:53.580Z,8.60
2022-08-11T08:59:53.572Z,9.80
2022-08-11T09:00:53.635Z,10.30
2022-08-11T09:01:53.551Z,9.60
2022-08-11T09:02:53.551Z,11.10
2022-08-11T09:04:07.020Z,9.00
2022-08-11T09:04:53.525Z,9.39
2022-08-11T09:05:53.513Z,11.69
2022-08-11T09:06:53.505Z,9.19
2022-08-11T09:07:53.601Z,8.10
2022-08-11T09:08:53.485Z,9.10
2022-08-11T09:09:53.475Z,8.30
2022-08-11T09:10:53.471Z,10.10
2022-08-11T09:11:53.484Z,9.89
2022-08-11T09:12:53.462Z,9.80
2022-08-11T09:14:05.639Z,9.39
2022-08-11T09:14:53.431Z,10.50
2022-08-11T09:15:56.403Z,8.00
2022-08-11T09:16:53.411Z,10.10
2022-08-11T09:17:53.403Z,8.10
2022-08-11T09:18:53.391Z,8.50
2022-08-11T09:19:56.479Z,10.00
2022-08-11T09:20:53.379Z,9.39
2022-08-11T09:21:53.368Z,9.19
2022-08-11T09:23:29.541Z,8.50
2022-08-11T09:24:15.002Z,8.89
2022-08-11T09:24:54.372Z,9.00
2022-08-11T09:25:53.332Z,10.89
2022-08-11T09:26:53.323Z,9.39
2022-08-11T09:27:53.312Z,8.39
2022-08-11T09:28:53.301Z,9.60
2022-08-11T09:29:53.295Z,11.69
2022-08-11T09:30:53.285Z,11.19
2022-08-11T09:31:53.277Z,7.59
2022-08-11T09:32:53.267Z,10.30
2022-08-11T09:33:53.256Z,11.39
2022-08-11T09:34:54.229Z,9.39
2022-08-11T09:35:53.239Z,11.10
2022-08-11T09:36:53.232Z,9.50
2022-08-11T09:37:55.350Z,9.50
2022-08-11T09:38:53.215Z,9.30
2022-08-11T09:39:53.239Z,8.39
2022-08-11T09:42:01.068Z,8.00
2022-08-11T09:42:23.616Z,9.60
2022-08-11T09:42:54.196Z,10.50
2022-08-11T09:43:53.174Z,8.39
2022-08-11T09:44:53.818Z,8.80
2022-08-11T09:45:53.147Z,12.19
2022-08-11T09:46:53.142Z,9.00
2022-08-11T09:47:53.130Z,7.80
2022-08-11T09:48:53.123Z,10.89
2022-08-11T09:49:53.122Z,10.39
2022-08-11T09:50:53.104Z,9.19
2022-08-11T09:52:02.040Z,9.80
2022-08-11T09:53:35.222Z,9.19
2022-08-11T09:54:03.631Z,9.80
2022-08-11T09:54:53.067Z,9.10
2022-08-11T09:55:53.059Z,8.39
2022-08-11T09:56:53.055Z,8.89
2022-08-11T09:57:55.151Z,10.00
2022-08-11T09:58:53.035Z,9.30
2022-08-11T09:59:53.027Z,10.80
2022-08-11T10:00:54.064Z,9.50
2022-08-11T10:01:53.009Z,9.10
2022-08-11T10:02:53.258Z,10.50
2022-08-11T10:03:52.991Z,9.50
2022-08-11T10:04:52.983Z,10.80
2022-08-11T10:05:52.974Z,9.80
2022-08-11T10:06:54.151Z,11.00
2022-08-11T10:07:52.954Z,9.39
2022-08-11T10:08:52.945Z,11.19
2022-08-11T10:09:52.936Z,8.39
2022-08-11T10:10:52.926Z,9.10
2022-08-11T10:11:58.103Z,8.10
2022-08-11T10:12:52.930Z,10.39
2022-08-11T10:14:33.202Z,9.69
2022-08-11T10:14:53.913Z,8.89
2022-08-11T10:16:02.370Z,8.39
2022-08-11T10:16:53.901Z,9.89
2022-08-11T10:17:52.864Z,9.69
2022-08-11T10:18:53.502Z,10.00
2022-08-11T10:20:04.281Z,9.19
2022-08-11T10:20:52.842Z,8.80
2022-08-11T10:21:52.835Z,8.50
2022-08-11T10:22:52.827Z,9.10
2022-08-11T10:24:01.122Z,10.10
2022-08-11T10:24:53.861Z,9.00
2022-08-11T10:25:52.799Z,10.80
2022-08-11T10:26:53.661Z,11.30
2022-08-11T10:28:30.371Z,8.19
2022-08-11T10:29:12.011Z,10.00
2022-08-11T10:29:53.781Z,9.89
2022-08-11T10:30:52.756Z,9.00
2022-08-11T10:31:57.987Z,9.30
2022-08-11T10:32:58.832Z,9.39
2022-08-11T10:33:59.219Z,7.90
2022-08-11T10:34:54.644Z,9.60
2022-08-11T10:35:52.711Z,11.10
2022-08-11T10:36:52.706Z,7.40
2022-08-11T10:38:08.719Z,9.00
2022-08-11T10:38:53.707Z,6.90
2022-08-11T10:39:52.732Z,7.59
2022-08-11T10:40:52.668Z,6.69
2022-08-11T10:42:08.719Z,8.69
2022-08-11T10:42:57.830Z,8.00
2022-08-11T10:44:01.689Z,8.89
2022-08-11T10:44:53.657Z,9.30
2022-08-11T10:45:52.630Z,8.10
2022-08-11T10:46:52.615Z,10.10
2022-08-11T10:47:52.609Z,10.19
2022-08-11T10:48:52.599Z,8.89
2022-08-11T10:49:52.587Z,9.80
2022-08-11T10:50:52.580Z,7.19
2022-08-11T10:51:53.858Z,7.59
2022-08-11T10:52:52.564Z,9.00
2022-08-11T10:53:52.552Z,9.60
2022-08-11T10:54:52.549Z,10.10
2022-08-11T10:55:52.593Z,7.90
2022-08-11T10:56:52.527Z,9.30
2022-08-11T10:58:04.920Z,10.69
2022-08-11T10:58:53.530Z,8.19
2022-08-11T10:59:52.502Z,7.40
2022-08-11T11:00:52.517Z,8.10
2022-08-11T11:01:52.482Z,7.19
2022-08-11T11:03:16.734Z,7.90
2022-08-11T11:03:53.485Z,10.80
2022-08-11T11:04:52.457Z,8.00
2022-08-11T11:06:28.902Z,9.69
2022-08-11T11:06:53.461Z,7.80
2022-08-11T11:07:52.432Z,9.00
2022-08-11T11:08:52.569Z,8.60
2022-08-11T11:09:52.415Z,9.10
2022-08-11T11:10:52.407Z,8.19
2022-08-11T11:11:52.398Z,7.30
2022-08-11T11:12:52.388Z,7.80
2022-08-11T11:13:53.274Z,9.60
2022-08-11T11:14:58.129Z,8.00
2022-08-11T11:15:53.386Z,7.30
2022-08-11T11:16:52.357Z,8.19
2022-08-11T11:17:52.344Z,7.50
2022-08-11T11:19:00.561Z,9.80
2022-08-11T11:19:53.657Z,7.59
2022-08-11T11:20:52.391Z,8.80
2022-08-11T11:21:52.313Z,7.69
2022-08-11T11:22:52.302Z,9.30
2022-08-11T11:23:52.295Z,9.10
2022-08-11T11:24:52.288Z,9.60
2022-08-11T11:25:56.785Z,8.00
2022-08-11T11:26:52.266Z,9.00
2022-08-11T11:27:52.259Z,8.30
2022-08-11T11:28:52.251Z,7.80
2022-08-11T11:29:52.243Z,8.10
2022-08-11T11:30:52.235Z,7.30
2022-08-11T11:31:52.227Z,8.50
2022-08-11T11:32:52.216Z,8.50
2022-08-11T11:34:12.384Z,7.50
2022-08-11T11:34:54.098Z,6.90
2022-08-11T11:35:52.194Z,9.19
2022-08-11T11:36:52.185Z,8.60
2022-08-11T11:38:04.595Z,7.59
2022-08-11T11:38:53.192Z,8.19
2022-08-11T11:39:52.266Z,7.59
2022-08-11T11:40:52.148Z,10.00
2022-08-11T11:41:52.146Z,9.60
2022-08-11T11:42:52.134Z,8.69
2022-08-11T11:43:52.123Z,10.10
2022-08-11T11:44:55.619Z,8.50
2022-08-11T11:45:52.110Z,8.80
2022-08-11T11:46:52.096Z,7.90
2022-08-11T11:47:52.087Z,8.50
2022-08-11T11:48:52.080Z,9.69
2022-08-11T11:49:52.070Z,8.89
2022-08-11T11:50:53.732Z,9.60
2022-08-11T11:51:52.059Z,7.69
2022-08-11T11:52:52.043Z,8.19
2022-08-11T11:53:52.033Z,7.50
2022-08-11T11:54:52.033Z,9.69
2022-08-11T11:55:52.019Z,7.90
2022-08-11T11:56:52.005Z,7.80
2022-08-11T11:57:58.948Z,8.10
2022-08-11T11:58:53.011Z,8.00
2022-08-11T11:59:51.983Z,9.30
2022-08-11T12:00:51.975Z,8.30
2022-08-11T12:01:52.694Z,7.80
2022-08-11T12:02:51.994Z,7.69
2022-08-11T12:03:51.952Z,8.19
2022-08-11T12:04:51.939Z,7.59
2022-08-11T12:05:51.932Z,7.09
2022-08-11T12:06:51.925Z,12.60
2022-08-11T12:07:56.851Z,9.00
2022-08-11T12:08:52.923Z,7.59
2022-08-11T12:09:51.898Z,8.50
2022-08-11T12:10:51.889Z,7.40
2022-08-11T12:11:51.881Z,9.80
2022-08-11T12:12:51.873Z,8.69
2022-08-11T12:13:51.869Z,8.80
2022-08-11T12:14:51.852Z,9.60
2022-08-11T12:16:31.010Z,8.19
2022-08-11T12:16:52.864Z,9.80
2022-08-11T12:17:52.886Z,8.69
2022-08-11T12:18:51.894Z,8.30
2022-08-11T12:19:51.813Z,10.00
2022-08-11T12:20:51.809Z,7.90
2022-08-11T12:21:51.798Z,7.30
2022-08-11T12:22:52.810Z,7.90
2022-08-11T12:23:51.781Z,8.89
2022-08-11T12:24:51.775Z,12.00
2022-08-11T12:26:10.079Z,8.39
2022-08-11T12:27:15.137Z,8.89
2022-08-11T12:27:52.768Z,7.59
2022-08-11T12:28:51.739Z,7.50
2022-08-11T12:29:55.488Z,7.80
2022-08-11T12:30:54.141Z,7.09
2022-08-11T12:32:25.768Z,7.19
2022-08-11T12:32:51.710Z,6.40
2022-08-11T12:33:51.702Z,7.80
2022-08-11T12:35:22.877Z,10.00
2022-08-11T12:36:00.630Z,7.30
2022-08-11T12:36:52.699Z,6.19
2022-08-11T12:37:51.668Z,8.60
2022-08-11T12:38:51.782Z,8.19
2022-08-11T12:45:12.134Z,7.09
2022-08-11T12:45:22.109Z,8.60
2022-08-11T12:47:08.087Z,8.80
2022-08-11T12:47:16.386Z,7.90
2022-08-11T12:48:57.524Z,8.39
2022-08-11T12:49:17.389Z,8.80
2022-08-11T12:50:23.079Z,7.69
2022-08-11T12:51:17.369Z,8.80
2022-08-11T12:52:16.347Z,8.80
2022-08-11T12:53:16.333Z,6.59
2022-08-11T12:54:16.324Z,8.69
2022-08-11T12:55:16.317Z,11.00
2022-08-11T12:56:16.310Z,10.89
2022-08-11T12:57:16.302Z,6.90
2022-08-11T12:58:17.321Z,7.90
2022-08-11T12:59:16.288Z,8.10
2022-08-11T13:00:16.279Z,7.50
2022-08-11T13:01:16.373Z,8.10
2022-08-11T13:18:18.758Z,9.50
2022-08-11T13:19:49.628Z,8.60
2022-08-11T13:20:20.160Z,9.50
2022-08-11T13:22:12.243Z,8.30
2022-08-11T13:22:20.134Z,8.60
2022-08-11T13:51:36.807Z,9.00
2022-08-11T13:51:38.207Z,7.50
2022-08-11T14:15:48.128Z,7.69
2022-08-11T14:16:49.526Z,7.00
2022-08-11T14:57:57.297Z,8.39
2022-08-11T14:57:58.974Z,8.10
2022-08-11T15:03:18.835Z,8.30
2022-08-11T15:03:27.979Z,8.89
2022-08-11T15:04:35.326Z,8.00
2022-08-11T15:05:21.250Z,7.40
2022-08-11T15:06:20.222Z,9.80
2022-08-11T15:07:20.213Z,10.30
2022-08-11T15:08:20.205Z,7.80
2022-08-11T15:09:20.201Z,9.50
2022-08-11T15:50:27.552Z,8.69
2022-08-11T15:50:28.964Z,9.50
2022-08-11T15:52:20.904Z,8.19
2022-08-11T15:52:28.950Z,8.80
2022-08-11T15:59:41.722Z,7.30
2022-08-11T15:59:41.871Z,8.50
2022-08-11T16:00:37.510Z,7.40
2022-08-11T16:09:29.057Z,7.50
2022-08-11T16:09:47.098Z,10.80
2022-08-11T16:10:35.930Z,10.50
2022-08-11T16:13:47.491Z,10.19
2022-08-11T16:13:48.866Z,9.30
2022-08-11T16:14:48.860Z,10.80
2022-08-11T16:15:48.850Z,9.50
2022-08-11T16:16:48.846Z,10.00
2022-08-11T16:17:48.834Z,10.30
2022-08-11T16:18:51.750Z,8.89
2022-08-11T16:19:48.814Z,8.39
2022-08-11T16:20:48.808Z,11.00
2022-08-11T16:21:48.798Z,9.50
2022-08-11T16:23:02.230Z,9.30
2022-08-11T16:23:48.784Z,10.69
2022-08-11T16:27:01.508Z,8.89
2022-08-11T16:27:03.581Z,8.39
2022-08-11T16:27:11.493Z,11.10
2022-08-11T16:27:49.772Z,10.19
2022-08-11T16:28:48.894Z,8.89
2022-08-11T16:29:48.733Z,8.30
2022-08-11T16:30:48.724Z,9.10
2022-08-11T16:31:48.715Z,10.50
2022-08-11T16:32:48.712Z,10.30
2022-08-11T16:33:51.633Z,10.89
2022-08-11T16:34:48.689Z,8.89
2022-08-11T16:35:48.683Z,9.89
2022-08-11T16:36:48.673Z,10.50
2022-08-11T16:37:48.665Z,8.89
2022-08-11T16:38:48.657Z,10.89
2022-08-11T16:39:50.715Z,9.19
2022-08-11T16:40:48.638Z,10.30
2022-08-11T16:41:48.631Z,9.30
2022-08-11T16:43:08.810Z,7.80
2022-08-11T16:43:49.631Z,8.39
2022-08-11T16:44:48.604Z,10.50
2022-08-11T16:45:48.592Z,11.69
2022-08-11T16:46:48.621Z,8.80
2022-08-11T16:48:02.785Z,10.00
2022-08-11T16:48:48.574Z,7.40
2022-08-11T16:49:52.461Z,7.69
2022-08-11T16:50:48.551Z,8.80
2022-08-11T16:51:48.540Z,10.50
2022-08-11T16:52:48.532Z,8.89
2022-08-11T16:54:04.427Z,9.30
2022-08-11T16:54:49.536Z,9.89
2022-08-11T16:55:52.465Z,11.69
2022-08-11T16:56:48.498Z,10.80
2022-08-11T16:57:48.492Z,9.10
2022-08-11T16:58:48.483Z,8.50
2022-08-11T16:59:48.469Z,8.19
2022-08-11T17:00:48.518Z,9.89
2022-08-11T17:01:48.451Z,9.60
2022-08-11T17:02:48.442Z,12.39